sensor_id;sensor_type;location;lat;lon;timestamp;P1;durP1;ratioP1;P2;durP2;ratioP2
20810;SDS011;10566;52.928;10.522;2022-07-23T00:00:14;12.70;;;6.07;;
20810;SDS011;10566;52.928;10.522;2022-07-23T00:02:40;8.88;;;5.78;;
20810;SDS011;10566;52.928;10.522;2022-07-23T00:05:06;9.25;;;6.00;;
20810;SDS011;10566;52.928;10.522;2022-07-23T00:07:32;9.55;;;5.90;;
20810;SDS011;10566;52.928;10.522;2022-07-23T00:09:58;10.70;;;5.85;;
20810;SDS011;10566;52.928;10.522;2022-07-23T00:12:23;12.30;;;6.20;;
20810;SDS011;10566;52.928;10.522;2022-07-23T00:14:49;8.95;;;5.65;;
20810;SDS011;10566;52.928;10.522;2022-07-23T00:17:15;11.88;;;5.65;;
20810;SDS011;10566;52.928;10.522;2022-07-23T00:19:40;10.43;;;5.47;;
20810;SDS011;10566;52.928;10.522;2022-07-23T00:22:06;8.82;;;5.20;;
20810;SDS011;10566;52.928;10.522;2022-07-23T00:24:32;11.88;;;5.88;;
20810;SDS011;10566;52.928;10.522;2022-07-23T00:26:57;11.82;;;6.03;;
20810;SDS011;10566;52.928;10.522;2022-07-23T00:29:23;9.98;;;6.00;;
20810;SDS011;10566;52.928;10.522;2022-07-23T00:31:48;18.75;;;7.10;;
20810;SDS011;10566;52.928;10.522;2022-07-23T00:34:14;11.48;;;5.95;;
20810;SDS011;10566;52.928;10.522;2022-07-23T00:36:39;10.88;;;5.97;;
20810;SDS011;10566;52.928;10.522;2022-07-23T00:39:06;10.73;;;6.10;;
20810;SDS011;10566;52.928;10.522;2022-07-23T00:41:31;9.05;;;6.20;;
20810;SDS011;10566;52.928;10.522;2022-07-23T00:44:13;13.65;;;6.35;;
20810;SDS011;10566;52.928;10.522;2022-07-23T00:46:57;13.05;;;6.45;;
20810;SDS011;10566;52.928;10.522;2022-07-23T00:49:24;10.13;;;6.50;;
20810;SDS011;10566;52.928;10.522;2022-07-23T00:51:54;11.48;;;7.50;;
20810;SDS011;10566;52.928;10.522;2022-07-23T00:54:25;10.98;;;7.15;;
20810;SDS011;10566;52.928;10.522;2022-07-23T00:56:52;12.13;;;7.13;;
20810;SDS011;10566;52.928;10.522;2022-07-23T00:59:18;10.75;;;7.15;;
20810;SDS011;10566;52.928;10.522;2022-07-23T01:01:43;13.70;;;7.28;;
20810;SDS011;10566;52.928;10.522;2022-07-23T01:04:10;11.38;;;7.30;;
20810;SDS011;10566;52.928;10.522;2022-07-23T01:06:37;10.48;;;7.10;;
20810;SDS011;10566;52.928;10.522;2022-07-23T01:09:03;10.77;;;7.10;;
20810;SDS011;10566;52.928;10.522;2022-07-23T01:11:31;12.63;;;7.47;;
20810;SDS011;10566;52.928;10.522;2022-07-23T01:14:11;10.75;;;6.93;;
20810;SDS011;10566;52.928;10.522;2022-07-23T01:16:38;10.38;;;6.75;;
20810;SDS011;10566;52.928;10.522;2022-07-23T01:19:04;13.30;;;7.03;;
20810;SDS011;10566;52.928;10.522;2022-07-23T01:21:31;10.55;;;7.35;;
20810;SDS011;10566;52.928;10.522;2022-07-23T01:24:00;10.80;;;6.60;;
20810;SDS011;10566;52.928;10.522;2022-07-23T01:26:26;9.45;;;6.47;;
20810;SDS011;10566;52.928;10.522;2022-07-23T01:28:51;15.35;;;6.93;;
20810;SDS011;10566;52.928;10.522;2022-07-23T01:31:17;9.88;;;7.18;;
20810;SDS011;10566;52.928;10.522;2022-07-23T01:33:44;11.30;;;7.05;;
20810;SDS011;10566;52.928;10.522;2022-07-23T01:36:09;10.65;;;6.40;;
20810;SDS011;10566;52.928;10.522;2022-07-23T01:38:35;11.77;;;6.55;;
20810;SDS011;10566;52.928;10.522;2022-07-23T01:41:00;9.85;;;6.72;;
20810;SDS011;10566;52.928;10.522;2022-07-23T01:43:26;11.73;;;6.80;;
20810;SDS011;10566;52.928;10.522;2022-07-23T01:45:52;13.75;;;7.22;;
20810;SDS011;10566;52.928;10.522;2022-07-23T01:48:17;12.20;;;6.63;;
20810;SDS011;10566;52.928;10.522;2022-07-23T01:50:43;12.23;;;6.97;;
20810;SDS011;10566;52.928;10.522;2022-07-23T01:53:10;9.32;;;6.82;;
20810;SDS011;10566;52.928;10.522;2022-07-23T01:55:36;14.95;;;7.35;;
20810;SDS011;10566;52.928;10.522;2022-07-23T01:58:01;9.65;;;6.95;;
20810;SDS011;10566;52.928;10.522;2022-07-23T02:00:27;9.65;;;7.53;;
20810;SDS011;10566;52.928;10.522;2022-07-23T02:02:52;12.23;;;7.35;;
20810;SDS011;10566;52.928;10.522;2022-07-23T02:05:18;13.55;;;8.20;;
20810;SDS011;10566;52.928;10.522;2022-07-23T02:07:44;11.48;;;7.45;;
20810;SDS011;10566;52.928;10.522;2022-07-23T02:10:10;12.63;;;7.53;;
20810;SDS011;10566;52.928;10.522;2022-07-23T02:12:35;13.60;;;7.37;;
20810;SDS011;10566;52.928;10.522;2022-07-23T02:15:01;14.50;;;8.18;;
20810;SDS011;10566;52.928;10.522;2022-07-23T02:17:27;11.40;;;7.70;;
20810;SDS011;10566;52.928;10.522;2022-07-23T02:19:52;12.77;;;8.20;;
20810;SDS011;10566;52.928;10.522;2022-07-23T02:22:18;12.90;;;8.00;;
20810;SDS011;10566;52.928;10.522;2022-07-23T02:24:43;13.13;;;7.63;;
20810;SDS011;10566;52.928;10.522;2022-07-23T02:27:09;11.40;;;8.60;;
20810;SDS011;10566;52.928;10.522;2022-07-23T02:29:34;12.43;;;7.97;;
20810;SDS011;10566;52.928;10.522;2022-07-23T02:32:00;12.47;;;8.10;;
20810;SDS011;10566;52.928;10.522;2022-07-23T02:34:26;12.63;;;7.70;;
20810;SDS011;10566;52.928;10.522;2022-07-23T02:36:52;11.00;;;8.23;;
20810;SDS011;10566;52.928;10.522;2022-07-23T02:39:18;12.93;;;8.27;;
20810;SDS011;10566;52.928;10.522;2022-07-23T02:41:44;11.27;;;8.23;;
20810;SDS011;10566;52.928;10.522;2022-07-23T02:44:10;13.20;;;8.30;;
20810;SDS011;10566;52.928;10.522;2022-07-23T02:46:36;12.53;;;7.67;;
20810;SDS011;10566;52.928;10.522;2022-07-23T02:49:02;11.73;;;7.80;;
20810;SDS011;10566;52.928;10.522;2022-07-23T02:51:29;12.17;;;7.87;;
20810;SDS011;10566;52.928;10.522;2022-07-23T02:53:55;12.13;;;7.87;;
20810;SDS011;10566;52.928;10.522;2022-07-23T02:56:21;11.60;;;8.20;;
20810;SDS011;10566;52.928;10.522;2022-07-23T02:58:47;13.47;;;8.20;;
20810;SDS011;10566;52.928;10.522;2022-07-23T03:01:13;12.00;;;7.57;;
20810;SDS011;10566;52.928;10.522;2022-07-23T03:03:39;12.00;;;7.87;;
20810;SDS011;10566;52.928;10.522;2022-07-23T03:06:05;11.63;;;7.37;;
20810;SDS011;10566;52.928;10.522;2022-07-23T03:08:31;11.63;;;7.77;;
20810;SDS011;10566;52.928;10.522;2022-07-23T03:10:57;11.83;;;8.37;;
20810;SDS011;10566;52.928;10.522;2022-07-23T03:13:23;10.53;;;7.47;;
20810;SDS011;10566;52.928;10.522;2022-07-23T03:15:49;11.43;;;7.93;;
20810;SDS011;10566;52.928;10.522;2022-07-23T03:18:15;12.40;;;8.70;;
20810;SDS011;10566;52.928;10.522;2022-07-23T03:20:41;12.30;;;8.50;;
20810;SDS011;10566;52.928;10.522;2022-07-23T03:23:08;11.37;;;8.33;;
20810;SDS011;10566;52.928;10.522;2022-07-23T03:25:34;11.73;;;7.93;;
20810;SDS011;10566;52.928;10.522;2022-07-23T03:28:00;12.93;;;8.10;;
20810;SDS011;10566;52.928;10.522;2022-07-23T03:30:26;11.03;;;8.37;;
20810;SDS011;10566;52.928;10.522;2022-07-23T03:32:52;11.90;;;7.67;;
20810;SDS011;10566;52.928;10.522;2022-07-23T03:35:18;12.00;;;7.33;;
20810;SDS011;10566;52.928;10.522;2022-07-23T03:37:44;14.47;;;7.90;;
20810;SDS011;10566;52.928;10.522;2022-07-23T03:40:11;11.30;;;7.87;;
20810;SDS011;10566;52.928;10.522;2022-07-23T03:42:37;10.27;;;7.57;;
20810;SDS011;10566;52.928;10.522;2022-07-23T03:45:06;12.93;;;6.90;;
20810;SDS011;10566;52.928;10.522;2022-07-23T03:47:32;12.63;;;7.63;;
20810;SDS011;10566;52.928;10.522;2022-07-23T03:49:58;12.13;;;8.13;;
20810;SDS011;10566;52.928;10.522;2022-07-23T03:52:24;13.00;;;7.93;;
20810;SDS011;10566;52.928;10.522;2022-07-23T03:54:50;10.23;;;7.70;;
20810;SDS011;10566;52.928;10.522;2022-07-23T03:57:16;12.43;;;7.87;;
20810;SDS011;10566;52.928;10.522;2022-07-23T03:59:42;11.07;;;7.73;;
20810;SDS011;10566;52.928;10.522;2022-07-23T04:02:08;15.87;;;7.77;;
20810;SDS011;10566;52.928;10.522;2022-07-23T04:04:34;13.37;;;7.70;;
20810;SDS011;10566;52.928;10.522;2022-07-23T04:07:00;10.67;;;7.37;;
20810;SDS011;10566;52.928;10.522;2022-07-23T04:09:26;12.00;;;8.07;;
20810;SDS011;10566;52.928;10.522;2022-07-23T04:11:52;10.50;;;7.37;;
20810;SDS011;10566;52.928;10.522;2022-07-23T04:14:18;13.70;;;8.23;;
20810;SDS011;10566;52.928;10.522;2022-07-23T04:16:44;12.77;;;7.67;;
20810;SDS011;10566;52.928;10.522;2022-07-23T04:19:10;11.67;;;7.77;;
20810;SDS011;10566;52.928;10.522;2022-07-23T04:21:37;11.50;;;7.70;;
20810;SDS011;10566;52.928;10.522;2022-07-23T04:24:03;11.90;;;8.10;;
20810;SDS011;10566;52.928;10.522;2022-07-23T04:26:29;12.20;;;8.50;;
20810;SDS011;10566;52.928;10.522;2022-07-23T04:28:56;11.50;;;7.77;;
20810;SDS011;10566;52.928;10.522;2022-07-23T04:31:22;13.63;;;8.60;;
20810;SDS011;10566;52.928;10.522;2022-07-23T04:33:48;13.33;;;8.57;;
20810;SDS011;10566;52.928;10.522;2022-07-23T04:36:14;12.53;;;8.40;;
20810;SDS011;10566;52.928;10.522;2022-07-23T04:38:40;12.20;;;8.63;;
20810;SDS011;10566;52.928;10.522;2022-07-23T04:41:06;11.77;;;8.30;;
20810;SDS011;10566;52.928;10.522;2022-07-23T04:43:32;12.70;;;8.40;;
20810;SDS011;10566;52.928;10.522;2022-07-23T04:45:58;12.47;;;8.70;;
20810;SDS011;10566;52.928;10.522;2022-07-23T04:48:24;14.83;;;8.07;;
20810;SDS011;10566;52.928;10.522;2022-07-23T04:50:50;15.57;;;8.77;;
20810;SDS011;10566;52.928;10.522;2022-07-23T04:53:16;13.87;;;8.67;;
20810;SDS011;10566;52.928;10.522;2022-07-23T04:55:43;16.57;;;8.77;;
20810;SDS011;10566;52.928;10.522;2022-07-23T04:58:09;13.97;;;9.30;;
20810;SDS011;10566;52.928;10.522;2022-07-23T05:00:35;12.33;;;9.20;;
20810;SDS011;10566;52.928;10.522;2022-07-23T05:03:01;14.03;;;9.43;;
20810;SDS011;10566;52.928;10.522;2022-07-23T05:05:27;14.43;;;10.03;;
20810;SDS011;10566;52.928;10.522;2022-07-23T05:07:54;14.20;;;9.60;;
20810;SDS011;10566;52.928;10.522;2022-07-23T05:10:20;17.27;;;9.80;;
20810;SDS011;10566;52.928;10.522;2022-07-23T05:12:46;13.23;;;9.50;;
20810;SDS011;10566;52.928;10.522;2022-07-23T05:15:12;13.87;;;9.67;;
20810;SDS011;10566;52.928;10.522;2022-07-23T05:17:38;12.43;;;9.10;;
20810;SDS011;10566;52.928;10.522;2022-07-23T05:20:04;14.90;;;7.80;;
20810;SDS011;10566;52.928;10.522;2022-07-23T05:22:30;11.10;;;8.03;;
20810;SDS011;10566;52.928;10.522;2022-07-23T05:24:56;14.20;;;8.90;;
20810;SDS011;10566;52.928;10.522;2022-07-23T05:27:22;12.33;;;8.43;;
20810;SDS011;10566;52.928;10.522;2022-07-23T05:29:48;16.30;;;8.80;;
20810;SDS011;10566;52.928;10.522;2022-07-23T05:32:14;14.20;;;8.63;;
20810;SDS011;10566;52.928;10.522;2022-07-23T05:34:41;18.23;;;9.23;;
20810;SDS011;10566;52.928;10.522;2022-07-23T05:37:07;14.97;;;8.83;;
20810;SDS011;10566;52.928;10.522;2022-07-23T05:39:33;15.80;;;9.63;;
20810;SDS011;10566;52.928;10.522;2022-07-23T05:41:59;14.23;;;8.93;;
20810;SDS011;10566;52.928;10.522;2022-07-23T05:44:25;12.70;;;8.27;;
20810;SDS011;10566;52.928;10.522;2022-07-23T05:46:52;10.13;;;7.00;;
20810;SDS011;10566;52.928;10.522;2022-07-23T05:49:18;9.60;;;6.88;;
20810;SDS011;10566;52.928;10.522;2022-07-23T05:51:44;11.70;;;6.90;;
20810;SDS011;10566;52.928;10.522;2022-07-23T05:54:10;12.35;;;6.47;;
20810;SDS011;10566;52.928;10.522;2022-07-23T05:56:36;12.27;;;6.82;;
20810;SDS011;10566;52.928;10.522;2022-07-23T05:59:03;9.07;;;6.10;;
20810;SDS011;10566;52.928;10.522;2022-07-23T06:01:29;9.20;;;5.72;;
20810;SDS011;10566;52.928;10.522;2022-07-23T06:03:55;10.07;;;5.95;;
20810;SDS011;10566;52.928;10.522;2022-07-23T06:06:21;10.93;;;6.30;;
20810;SDS011;10566;52.928;10.522;2022-07-23T06:08:47;10.02;;;6.10;;
20810;SDS011;10566;52.928;10.522;2022-07-23T06:11:13;9.88;;;6.28;;
20810;SDS011;10566;52.928;10.522;2022-07-23T06:13:40;9.60;;;5.95;;
20810;SDS011;10566;52.928;10.522;2022-07-23T06:16:07;10.05;;;6.50;;
20810;SDS011;10566;52.928;10.522;2022-07-23T06:18:33;10.13;;;6.25;;
20810;SDS011;10566;52.928;10.522;2022-07-23T06:20:59;8.20;;;5.03;;
20810;SDS011;10566;52.928;10.522;2022-07-23T06:23:25;10.35;;;4.68;;
20810;SDS011;10566;52.928;10.522;2022-07-23T06:25:51;9.68;;;3.80;;
20810;SDS011;10566;52.928;10.522;2022-07-23T06:28:17;12.40;;;3.90;;
20810;SDS011;10566;52.928;10.522;2022-07-23T06:30:43;8.55;;;3.83;;
20810;SDS011;10566;52.928;10.522;2022-07-23T06:33:09;8.05;;;4.00;;
20810;SDS011;10566;52.928;10.522;2022-07-23T06:35:37;7.03;;;3.15;;
20810;SDS011;10566;52.928;10.522;2022-07-23T06:38:03;5.70;;;2.78;;
20810;SDS011;10566;52.928;10.522;2022-07-23T06:40:29;8.68;;;2.95;;
20810;SDS011;10566;52.928;10.522;2022-07-23T06:42:55;7.78;;;2.42;;
20810;SDS011;10566;52.928;10.522;2022-07-23T06:45:21;6.47;;;2.60;;
20810;SDS011;10566;52.928;10.522;2022-07-23T06:47:47;7.22;;;2.70;;
20810;SDS011;10566;52.928;10.522;2022-07-23T06:50:13;6.60;;;2.78;;
20810;SDS011;10566;52.928;10.522;2022-07-23T06:52:39;8.80;;;2.53;;
20810;SDS011;10566;52.928;10.522;2022-07-23T06:55:05;9.32;;;1.55;;
20810;SDS011;10566;52.928;10.522;2022-07-23T06:57:32;5.03;;;1.40;;
20810;SDS011;10566;52.928;10.522;2022-07-23T06:59:58;4.15;;;1.35;;
20810;SDS011;10566;52.928;10.522;2022-07-23T07:02:24;5.75;;;1.27;;
20810;SDS011;10566;52.928;10.522;2022-07-23T07:04:50;4.45;;;1.30;;
20810;SDS011;10566;52.928;10.522;2022-07-23T07:07:16;5.13;;;1.35;;
20810;SDS011;10566;52.928;10.522;2022-07-23T07:09:42;5.30;;;1.13;;
20810;SDS011;10566;52.928;10.522;2022-07-23T07:12:09;5.05;;;0.93;;
20810;SDS011;10566;52.928;10.522;2022-07-23T07:14:39;4.20;;;1.00;;
20810;SDS011;10566;52.928;10.522;2022-07-23T07:17:05;4.88;;;1.30;;
20810;SDS011;10566;52.928;10.522;2022-07-23T07:19:31;4.00;;;1.10;;
20810;SDS011;10566;52.928;10.522;2022-07-23T07:21:57;5.30;;;1.02;;
20810;SDS011;10566;52.928;10.522;2022-07-23T07:24:23;4.45;;;0.90;;
20810;SDS011;10566;52.928;10.522;2022-07-23T07:26:49;4.40;;;0.80;;
20810;SDS011;10566;52.928;10.522;2022-07-23T07:29:14;4.45;;;0.80;;
20810;SDS011;10566;52.928;10.522;2022-07-23T07:31:40;4.35;;;1.40;;
20810;SDS011;10566;52.928;10.522;2022-07-23T07:34:06;3.33;;;1.00;;
20810;SDS011;10566;52.928;10.522;2022-07-23T07:36:31;5.68;;;1.23;;
20810;SDS011;10566;52.928;10.522;2022-07-23T07:38:57;6.35;;;1.25;;
20810;SDS011;10566;52.928;10.522;2022-07-23T07:41:23;5.13;;;1.10;;
20810;SDS011;10566;52.928;10.522;2022-07-23T07:43:51;4.93;;;1.30;;
20810;SDS011;10566;52.928;10.522;2022-07-23T07:46:16;6.13;;;1.40;;
20810;SDS011;10566;52.928;10.522;2022-07-23T07:48:42;8.50;;;1.60;;
20810;SDS011;10566;52.928;10.522;2022-07-23T07:51:07;7.18;;;1.23;;
20810;SDS011;10566;52.928;10.522;2022-07-23T07:53:33;5.07;;;1.60;;
20810;SDS011;10566;52.928;10.522;2022-07-23T07:55:59;4.80;;;1.30;;
20810;SDS011;10566;52.928;10.522;2022-07-23T07:58:24;5.60;;;1.40;;
20810;SDS011;10566;52.928;10.522;2022-07-23T08:00:50;6.45;;;1.92;;
20810;SDS011;10566;52.928;10.522;2022-07-23T08:03:16;7.75;;;2.08;;
20810;SDS011;10566;52.928;10.522;2022-07-23T08:05:42;8.65;;;2.22;;
20810;SDS011;10566;52.928;10.522;2022-07-23T08:08:07;6.20;;;2.20;;
20810;SDS011;10566;52.928;10.522;2022-07-23T08:10:34;5.22;;;1.88;;
20810;SDS011;10566;52.928;10.522;2022-07-23T08:13:00;7.40;;;2.35;;
20810;SDS011;10566;52.928;10.522;2022-07-23T08:15:26;11.10;;;2.50;;
20810;SDS011;10566;52.928;10.522;2022-07-23T08:17:53;7.13;;;2.85;;
20810;SDS011;10566;52.928;10.522;2022-07-23T08:20:19;5.93;;;2.78;;
20810;SDS011;10566;52.928;10.522;2022-07-23T08:22:47;7.45;;;2.83;;
20810;SDS011;10566;52.928;10.522;2022-07-23T08:25:26;7.10;;;2.67;;
20810;SDS011;10566;52.928;10.522;2022-07-23T08:27:53;6.03;;;2.40;;
20810;SDS011;10566;52.928;10.522;2022-07-23T08:30:20;6.15;;;2.28;;
20810;SDS011;10566;52.928;10.522;2022-07-23T08:32:56;9.20;;;3.10;;
20810;SDS011;10566;52.928;10.522;2022-07-23T08:35:41;9.57;;;2.70;;
20810;SDS011;10566;52.928;10.522;2022-07-23T08:38:10;5.90;;;2.42;;
20810;SDS011;10566;52.928;10.522;2022-07-23T08:40:37;7.05;;;2.50;;
20810;SDS011;10566;52.928;10.522;2022-07-23T08:43:10;7.50;;;2.88;;
20810;SDS011;10566;52.928;10.522;2022-07-23T08:45:42;7.65;;;2.13;;
20810;SDS011;10566;52.928;10.522;2022-07-23T08:48:14;6.70;;;2.35;;
20810;SDS011;10566;52.928;10.522;2022-07-23T08:50:42;5.13;;;2.00;;
20810;SDS011;10566;52.928;10.522;2022-07-23T08:53:09;4.60;;;1.48;;
20810;SDS011;10566;52.928;10.522;2022-07-23T08:55:35;4.70;;;1.20;;
20810;SDS011;10566;52.928;10.522;2022-07-23T08:58:01;3.90;;;1.30;;
20810;SDS011;10566;52.928;10.522;2022-07-23T09:00:28;3.97;;;1.30;;
20810;SDS011;10566;52.928;10.522;2022-07-23T09:02:54;3.40;;;1.13;;
20810;SDS011;10566;52.928;10.522;2022-07-23T09:05:20;3.35;;;1.10;;
20810;SDS011;10566;52.928;10.522;2022-07-23T09:15:54;3.33;;;1.13;;
20810;SDS011;10566;52.928;10.522;2022-07-23T09:18:30;6.05;;;1.40;;
20810;SDS011;10566;52.928;10.522;2022-07-23T09:21:25;7.57;;;1.50;;
20810;SDS011;10566;52.928;10.522;2022-07-23T09:24:09;4.68;;;1.30;;
20810;SDS011;10566;52.928;10.522;2022-07-23T09:26:39;3.53;;;1.30;;
20810;SDS011;10566;52.928;10.522;2022-07-23T09:29:14;4.68;;;1.15;;
20810;SDS011;10566;52.928;10.522;2022-07-23T09:34:19;4.20;;;0.95;;
20810;SDS011;10566;52.928;10.522;2022-07-23T09:36:52;4.57;;;1.00;;
20810;SDS011;10566;52.928;10.522;2022-07-23T09:39:27;3.28;;;1.00;;
20810;SDS011;10566;52.928;10.522;2022-07-23T09:41:57;5.22;;;1.27;;
20810;SDS011;10566;52.928;10.522;2022-07-23T09:44:40;7.53;;;1.33;;
20810;SDS011;10566;52.928;10.522;2022-07-23T09:47:07;6.55;;;1.30;;
20810;SDS011;10566;52.928;10.522;2022-07-23T09:49:33;4.10;;;1.33;;
20810;SDS011;10566;52.928;10.522;2022-07-23T09:51:59;4.10;;;1.20;;
20810;SDS011;10566;52.928;10.522;2022-07-23T09:54:39;4.10;;;1.30;;
20810;SDS011;10566;52.928;10.522;2022-07-23T09:57:09;5.72;;;1.17;;
20810;SDS011;10566;52.928;10.522;2022-07-23T09:59:41;4.00;;;0.98;;
20810;SDS011;10566;52.928;10.522;2022-07-23T10:02:08;4.47;;;1.30;;
20810;SDS011;10566;52.928;10.522;2022-07-23T10:04:35;6.10;;;1.20;;
20810;SDS011;10566;52.928;10.522;2022-07-23T10:07:03;3.58;;;1.08;;
20810;SDS011;10566;52.928;10.522;2022-07-23T10:09:34;4.32;;;1.70;;
20810;SDS011;10566;52.928;10.522;2022-07-23T10:12:05;3.67;;;1.10;;
20810;SDS011;10566;52.928;10.522;2022-07-23T10:14:56;2.78;;;0.82;;
20810;SDS011;10566;52.928;10.522;2022-07-23T10:17:22;4.15;;;0.82;;
20810;SDS011;10566;52.928;10.522;2022-07-23T10:19:48;3.55;;;0.90;;
20810;SDS011;10566;52.928;10.522;2022-07-23T10:22:15;4.22;;;0.90;;
20810;SDS011;10566;52.928;10.522;2022-07-23T10:25:12;3.85;;;1.10;;
20810;SDS011;10566;52.928;10.522;2022-07-23T10:36:27;2.28;;;1.00;;
20810;SDS011;10566;52.928;10.522;2022-07-23T10:41:38;3.35;;;1.10;;
20810;SDS011;10566;52.928;10.522;2022-07-23T10:44:31;3.45;;;1.13;;
20810;SDS011;10566;52.928;10.522;2022-07-23T10:47:02;3.03;;;0.90;;
20810;SDS011;10566;52.928;10.522;2022-07-23T10:49:32;3.42;;;0.90;;
20810;SDS011;10566;52.928;10.522;2022-07-23T10:57:20;4.07;;;1.10;;
20810;SDS011;10566;52.928;10.522;2022-07-23T11:02:34;4.22;;;1.00;;
20810;SDS011;10566;52.928;10.522;2022-07-23T11:05:03;1.95;;;0.70;;
20810;SDS011;10566;52.928;10.522;2022-07-23T11:07:38;2.33;;;1.02;;
20810;SDS011;10566;52.928;10.522;2022-07-23T11:13:35;2.78;;;0.95;;
20810;SDS011;10566;52.928;10.522;2022-07-23T11:16:21;1.92;;;0.80;;
20810;SDS011;10566;52.928;10.522;2022-07-23T11:18:58;3.65;;;1.48;;
20810;SDS011;10566;52.928;10.522;2022-07-23T11:32:05;2.65;;;0.85;;
20810;SDS011;10566;52.928;10.522;2022-07-23T11:34:47;4.70;;;0.90;;
20810;SDS011;10566;52.928;10.522;2022-07-23T11:40:00;3.05;;;0.93;;
20810;SDS011;10566;52.928;10.522;2022-07-23T11:42:27;2.13;;;0.82;;
20810;SDS011;10566;52.928;10.522;2022-07-23T11:44:53;3.70;;;1.00;;
20810;SDS011;10566;52.928;10.522;2022-07-23T11:47:23;4.00;;;1.00;;
20810;SDS011;10566;52.928;10.522;2022-07-23T11:49:56;3.95;;;1.08;;
20810;SDS011;10566;52.928;10.522;2022-07-23T11:52:24;4.15;;;1.85;;
20810;SDS011;10566;52.928;10.522;2022-07-23T11:54:58;2.33;;;0.80;;
20810;SDS011;10566;52.928;10.522;2022-07-23T11:57:29;2.08;;;0.80;;
20810;SDS011;10566;52.928;10.522;2022-07-23T12:02:46;3.15;;;1.08;;
20810;SDS011;10566;52.928;10.522;2022-07-23T12:05:28;2.30;;;1.02;;
20810;SDS011;10566;52.928;10.522;2022-07-23T12:07:56;3.00;;;1.27;;
20810;SDS011;10566;52.928;10.522;2022-07-23T12:10:30;2.55;;;1.20;;
20810;SDS011;10566;52.928;10.522;2022-07-23T12:12:59;2.75;;;1.00;;
20810;SDS011;10566;52.928;10.522;2022-07-23T12:15:35;6.30;;;1.20;;
20810;SDS011;10566;52.928;10.522;2022-07-23T12:18:06;5.80;;;3.88;;
20810;SDS011;10566;52.928;10.522;2022-07-23T12:20:34;4.05;;;1.60;;
20810;SDS011;10566;52.928;10.522;2022-07-23T12:23:14;2.35;;;1.08;;
20810;SDS011;10566;52.928;10.522;2022-07-23T12:25:49;2.35;;;0.90;;
20810;SDS011;10566;52.928;10.522;2022-07-23T12:30:46;1.05;;;0.60;;
20810;SDS011;10566;52.928;10.522;2022-07-23T12:33:27;2.88;;;0.88;;
20810;SDS011;10566;52.928;10.522;2022-07-23T12:35:58;1.88;;;0.80;;
20810;SDS011;10566;52.928;10.522;2022-07-23T12:38:39;3.33;;;1.00;;
20810;SDS011;10566;52.928;10.522;2022-07-23T12:41:23;2.40;;;0.80;;
20810;SDS011;10566;52.928;10.522;2022-07-23T12:43:53;2.13;;;0.90;;
20810;SDS011;10566;52.928;10.522;2022-07-23T12:46:23;2.83;;;0.88;;
20810;SDS011;10566;52.928;10.522;2022-07-23T12:48:52;2.30;;;0.90;;
20810;SDS011;10566;52.928;10.522;2022-07-23T12:51:41;3.33;;;0.80;;
20810;SDS011;10566;52.928;10.522;2022-07-23T12:54:08;3.25;;;0.70;;
20810;SDS011;10566;52.928;10.522;2022-07-23T12:56:38;1.60;;;0.80;;
20810;SDS011;10566;52.928;10.522;2022-07-23T12:59:08;3.42;;;1.23;;
20810;SDS011;10566;52.928;10.522;2022-07-23T13:02:08;2.22;;;0.70;;
20810;SDS011;10566;52.928;10.522;2022-07-23T13:04:35;2.60;;;0.80;;
20810;SDS011;10566;52.928;10.522;2022-07-23T13:07:10;2.00;;;0.70;;
20810;SDS011;10566;52.928;10.522;2022-07-23T13:09:53;1.77;;;0.70;;
20810;SDS011;10566;52.928;10.522;2022-07-23T13:12:28;5.45;;;0.70;;
20810;SDS011;10566;52.928;10.522;2022-07-23T13:15:02;1.42;;;0.50;;
20810;SDS011;10566;52.928;10.522;2022-07-23T13:17:31;0.95;;;0.50;;
20810;SDS011;10566;52.928;10.522;2022-07-23T13:19:57;2.22;;;0.50;;
20810;SDS011;10566;52.928;10.522;2022-07-23T13:22:22;2.72;;;0.70;;
20810;SDS011;10566;52.928;10.522;2022-07-23T13:24:48;1.00;;;0.55;;
20810;SDS011;10566;52.928;10.522;2022-07-23T13:27:13;1.65;;;0.50;;
20810;SDS011;10566;52.928;10.522;2022-07-23T13:29:39;1.85;;;0.60;;
20810;SDS011;10566;52.928;10.522;2022-07-23T13:32:06;1.55;;;0.40;;
20810;SDS011;10566;52.928;10.522;2022-07-23T13:34:31;1.98;;;0.43;;
20810;SDS011;10566;52.928;10.522;2022-07-23T13:36:57;4.97;;;0.43;;
20810;SDS011;10566;52.928;10.522;2022-07-23T13:39:23;2.47;;;0.50;;
20810;SDS011;10566;52.928;10.522;2022-07-23T13:41:48;2.22;;;0.43;;
20810;SDS011;10566;52.928;10.522;2022-07-23T13:44:15;2.75;;;0.40;;
20810;SDS011;10566;52.928;10.522;2022-07-23T13:46:40;1.25;;;0.40;;
20810;SDS011;10566;52.928;10.522;2022-07-23T13:49:06;1.80;;;0.40;;
20810;SDS011;10566;52.928;10.522;2022-07-23T13:51:31;1.60;;;0.40;;
20810;SDS011;10566;52.928;10.522;2022-07-23T13:53:57;1.42;;;0.40;;
20810;SDS011;10566;52.928;10.522;2022-07-23T13:56:24;2.95;;;0.50;;
20810;SDS011;10566;52.928;10.522;2022-07-23T13:58:49;2.78;;;0.45;;
20810;SDS011;10566;52.928;10.522;2022-07-23T14:01:15;4.05;;;0.40;;
20810;SDS011;10566;52.928;10.522;2022-07-23T14:03:40;1.63;;;0.40;;
20810;SDS011;10566;52.928;10.522;2022-07-23T14:06:06;2.13;;;0.50;;
20810;SDS011;10566;52.928;10.522;2022-07-23T14:08:32;1.40;;;0.40;;
20810;SDS011;10566;52.928;10.522;2022-07-23T14:10:58;1.05;;;0.45;;
20810;SDS011;10566;52.928;10.522;2022-07-23T14:13:32;1.50;;;0.38;;
20810;SDS011;10566;52.928;10.522;2022-07-23T14:16:07;1.85;;;0.40;;
20810;SDS011;10566;52.928;10.522;2022-07-23T14:18:41;2.00;;;0.40;;
20810;SDS011;10566;52.928;10.522;2022-07-23T14:21:12;0.60;;;0.30;;
20810;SDS011;10566;52.928;10.522;2022-07-23T14:23:39;1.15;;;0.40;;
20810;SDS011;10566;52.928;10.522;2022-07-23T14:26:05;3.53;;;0.40;;
20810;SDS011;10566;52.928;10.522;2022-07-23T14:28:32;1.65;;;0.50;;
20810;SDS011;10566;52.928;10.522;2022-07-23T14:30:58;3.15;;;0.43;;
20810;SDS011;10566;52.928;10.522;2022-07-23T14:33:24;0.88;;;0.30;;
20810;SDS011;10566;52.928;10.522;2022-07-23T14:35:49;1.67;;;0.40;;
20810;SDS011;10566;52.928;10.522;2022-07-23T14:38:15;1.15;;;0.40;;
20810;SDS011;10566;52.928;10.522;2022-07-23T14:40:41;2.65;;;0.40;;
20810;SDS011;10566;52.928;10.522;2022-07-23T14:43:07;4.80;;;0.40;;
20810;SDS011;10566;52.928;10.522;2022-07-23T14:45:33;3.85;;;0.40;;
20810;SDS011;10566;52.928;10.522;2022-07-23T14:47:59;2.95;;;0.40;;
20810;SDS011;10566;52.928;10.522;2022-07-23T14:50:28;1.08;;;0.40;;
20810;SDS011;10566;52.928;10.522;2022-07-23T14:52:54;0.93;;;0.38;;
20810;SDS011;10566;52.928;10.522;2022-07-23T14:55:19;1.42;;;0.50;;
20810;SDS011;10566;52.928;10.522;2022-07-23T15:00:14;1.98;;;0.40;;
20810;SDS011;10566;52.928;10.522;2022-07-23T15:02:40;1.10;;;0.40;;
20810;SDS011;10566;52.928;10.522;2022-07-23T15:05:06;2.35;;;0.30;;
20810;SDS011;10566;52.928;10.522;2022-07-23T15:07:32;1.77;;;0.45;;
20810;SDS011;10566;52.928;10.522;2022-07-23T15:09:58;2.47;;;0.40;;
20810;SDS011;10566;52.928;10.522;2022-07-23T15:12:24;1.42;;;0.40;;
20810;SDS011;10566;52.928;10.522;2022-07-23T15:14:50;2.83;;;0.55;;
20810;SDS011;10566;52.928;10.522;2022-07-23T15:17:22;2.25;;;0.40;;
20810;SDS011;10566;52.928;10.522;2022-07-23T15:19:50;4.50;;;0.40;;
20810;SDS011;10566;52.928;10.522;2022-07-23T15:22:17;1.70;;;0.60;;
20810;SDS011;10566;52.928;10.522;2022-07-23T15:24:53;2.80;;;0.40;;
20810;SDS011;10566;52.928;10.522;2022-07-23T15:27:31;1.27;;;0.45;;